Time;durP1;ratioP1;P1;durP2;ratioP2;P2;SDS_P1;SDS_P2;PMS_P1;PMS_P2;Temp;Humidity;BMP_temperature;BMP_pressure;BME280_temperature;BME280_humidity;BME280_pressure;Samples;Min_cycle;Max_cycle;Signal;HPM_P1;HPM_P2
2023/06/10 00:00:56;;;;;;;13.20;6.43;;;23.30;99.90;;;;;;7282888;19;20181;-79
2023/06/10 00:03:26;;;;;;;10.40;6.37;;;23.30;99.90;;;;;;7281172;19;20553;-78
2023/06/10 00:05:54;;;;;;;10.20;6.10;;;23.30;99.90;;;;;;7282006;19;20184;-79
2023/06/10 00:08:20;;;;;;;11.13;6.47;;;23.10;99.90;;;;;;7283393;19;20205;-78
2023/06/10 00:10:46;;;;;;;9.87;6.20;;;23.10;99.90;;;;;;7305690;19;20181;-79
2023/06/10 00:13:12;;;;;;;12.07;6.27;;;23.00;99.90;;;;;;7281932;19;20641;-79
2023/06/10 00:15:38;;;;;;;9.97;6.27;;;23.00;99.90;;;;;;7282126;19;20195;-79
2023/06/10 00:18:04;;;;;;;10.20;6.43;;;22.90;99.90;;;;;;7281381;19;20196;-79
2023/06/10 00:20:30;;;;;;;10.63;6.60;;;22.90;99.90;;;;;;7284834;19;20185;-79
2023/06/10 00:23:01;;;;;;;9.37;6.37;;;22.80;99.90;;;;;;7288044;19;20193;-79
2023/06/10 00:25:27;;;;;;;13.10;6.27;;;22.80;99.90;;;;;;7287160;19;20265;-79
2023/06/10 00:27:52;;;;;;;10.70;6.73;;;22.80;99.90;;;;;;7288034;19;20213;-79
2023/06/10 00:30:18;;;;;;;13.73;7.20;;;22.80;99.90;;;;;;7310435;19;20205;-79
2023/06/10 00:32:44;;;;;;;11.57;6.30;;;22.80;99.90;;;;;;7288557;19;20299;-79
2023/06/10 00:35:10;;;;;;;11.73;6.53;;;22.70;99.90;;;;;;7289209;19;20197;-79
2023/06/10 00:37:36;;;;;;;13.00;6.67;;;22.70;99.90;;;;;;7287774;19;20294;-78
2023/06/10 00:40:05;;;;;;;11.80;6.63;;;22.70;99.90;;;;;;7287398;19;20252;-79
2023/06/10 00:42:31;;;;;;;13.93;7.07;;;22.60;99.90;;;;;;7287323;19;20629;-79
2023/06/10 00:44:57;;;;;;;10.30;6.77;;;22.60;99.90;;;;;;7289413;19;20187;-78
2023/06/10 00:47:23;;;;;;;12.27;6.97;;;22.60;99.90;;;;;;7287204;19;20301;-78
2023/06/10 00:49:50;;;;;;;11.77;7.13;;;22.60;99.90;;;;;;7306916;19;20656;-78
2023/06/10 00:52:18;;;;;;;14.37;6.90;;;22.50;99.90;;;;;;7310115;19;20269;-79
2023/06/10 00:54:44;;;;;;;11.40;7.10;;;22.50;99.90;;;;;;7287853;19;20188;-79
2023/06/10 00:57:12;;;;;;;11.93;6.67;;;22.50;99.90;;;;;;7288023;19;20194;-79
2023/06/10 00:59:40;;;;;;;10.77;6.70;;;22.50;99.90;;;;;;7288771;19;21410;-79
2023/06/10 01:02:07;;;;;;;13.40;6.57;;;22.50;99.90;;;;;;7288227;19;20189;-79
2023/06/10 01:04:33;;;;;;;11.10;7.27;;;22.50;99.90;;;;;;7287140;19;20180;-80
2023/06/10 01:07:09;;;;;;;12.07;7.53;;;22.30;99.90;;;;;;7288957;19;20195;-79
2023/06/10 01:09:52;;;;;;;11.03;7.40;;;22.30;99.90;;;;;;7289269;19;20251;-78
2023/06/10 01:12:26;;;;;;;11.73;6.77;;;22.30;99.90;;;;;;7288927;19;20183;-78
2023/06/10 01:14:55;;;;;;;11.60;6.67;;;22.30;99.90;;;;;;7286801;19;20185;-78
2023/06/10 01:17:21;;;;;;;13.13;7.30;;;22.30;99.90;;;;;;7288926;19;20196;-77
2023/06/10 01:19:57;;;;;;;11.37;6.80;;;22.30;99.90;;;;;;7309148;19;20184;-78
2023/06/10 01:22:25;;;;;;;12.07;7.10;;;22.40;99.90;;;;;;7264148;19;20190;-79
2023/06/10 01:24:52;;;;;;;11.60;6.57;;;22.30;99.90;;;;;;7285428;19;20224;-78
2023/06/10 01:27:21;;;;;;;13.90;7.40;;;22.30;99.90;;;;;;7308936;19;20188;-78
2023/06/10 01:29:54;;;;;;;12.07;7.27;;;22.20;99.90;;;;;;7287458;19;20193;-78
2023/06/10 01:32:34;;;;;;;10.63;6.93;;;22.20;99.90;;;;;;7270616;19;20626;-77
2023/06/10 01:35:01;;;;;;;15.77;7.50;;;22.20;99.90;;;;;;7285284;19;20197;-78
2023/06/10 01:37:27;;;;;;;11.17;7.03;;;22.20;99.90;;;;;;7286641;19;20298;-78
2023/06/10 01:39:57;;;;;;;10.63;7.57;;;22.20;99.90;;;;;;7286164;19;21076;-77
2023/06/10 01:42:24;;;;;;;13.13;7.30;;;22.20;99.90;;;;;;7286919;19;20542;-78
2023/06/10 01:44:50;;;;;;;14.93;7.77;;;22.10;99.90;;;;;;7294866;19;20273;-78
2023/06/10 01:47:16;;;;;;;11.27;7.23;;;22.10;99.90;;;;;;7309211;19;20563;-78
2023/06/10 01:49:42;;;;;;;11.23;7.50;;;22.00;99.90;;;;;;7286650;19;20189;-78
2023/06/10 01:52:08;;;;;;;13.53;7.70;;;22.10;99.90;;;;;;7286664;19;20641;-78
2023/06/10 01:54:36;;;;;;;11.87;6.87;;;22.00;99.90;;;;;;7286640;19;20208;-79
2023/06/10 01:57:02;;;;;;;13.37;7.63;;;22.00;99.90;;;;;;7286169;19;20215;-78
2023/06/10 01:59:28;;;;;;;10.83;7.27;;;22.00;99.90;;;;;;7286290;19;20193;-78
2023/06/10 02:01:54;;;;;;;12.77;7.33;;;21.90;99.90;;;;;;7286230;19;20714;-78
2023/06/10 02:04:19;;;;;;;12.17;6.97;;;21.90;99.90;;;;;;7297737;19;20196;-78
2023/06/10 02:06:45;;;;;;;11.87;7.60;;;21.90;99.90;;;;;;7302713;19;20698;-78
2023/06/10 02:09:11;;;;;;;13.10;7.60;;;21.90;99.90;;;;;;7286531;19;20582;-79
2023/06/10 02:11:37;;;;;;;11.00;7.40;;;22.00;99.90;;;;;;7284936;19;20563;-78
2023/06/10 02:14:02;;;;;;;12.23;7.50;;;21.90;99.90;;;;;;7286062;19;20200;-78
2023/06/10 02:16:28;;;;;;;13.80;7.63;;;21.90;99.90;;;;;;7285892;19;20209;-78
2023/06/10 02:18:54;;;;;;;12.83;7.37;;;21.80;99.90;;;;;;7285086;19;20197;-78
2023/06/10 02:21:20;;;;;;;14.77;7.83;;;21.80;99.90;;;;;;7292444;19;20214;-78
2023/06/10 02:23:46;;;;;;;11.60;7.70;;;21.80;99.90;;;;;;7307147;19;20574;-79
2023/06/10 02:26:11;;;;;;;11.63;7.50;;;21.80;99.90;;;;;;7284975;19;20189;-78
2023/06/10 02:28:37;;;;;;;13.93;7.63;;;21.70;99.90;;;;;;7285762;19;20224;-79
2023/06/10 02:31:03;;;;;;;10.00;6.67;;;21.70;99.90;;;;;;7285375;19;20240;-79
2023/06/10 02:33:29;;;;;;;12.00;7.70;;;21.70;99.90;;;;;;7284590;19;20189;-78
2023/06/10 02:35:55;;;;;;;11.03;7.30;;;21.70;99.90;;;;;;7285314;19;20201;-78
2023/06/10 02:38:22;;;;;;;12.60;7.43;;;21.70;99.90;;;;;;7285043;19;20184;-78
2023/06/10 02:40:48;;;;;;;11.10;7.63;;;21.60;99.90;;;;;;7306572;19;20272;-80
2023/06/10 02:43:14;;;;;;;10.80;7.30;;;21.50;99.90;;;;;;7283959;19;20189;-79
2023/06/10 02:45:40;;;;;;;13.23;8.10;;;21.50;99.90;;;;;;7283308;19;20566;-79
2023/06/10 02:48:07;;;;;;;13.10;7.50;;;21.60;99.90;;;;;;7282771;19;20193;-79
2023/06/10 02:50:33;;;;;;;10.70;7.50;;;21.60;99.90;;;;;;7284968;19;20185;-78
2023/06/10 02:53:08;;;;;;;13.07;7.57;;;21.50;99.90;;;;;;7283773;19;20197;-79
2023/06/10 02:55:37;;;;;;;10.83;7.07;;;21.50;99.90;;;;;;7285595;19;20653;-79
2023/06/10 02:58:07;;;;;;;10.10;7.47;;;21.60;99.90;;;;;;7283791;19;20533;-79
2023/06/10 03:00:33;;;;;;;11.50;7.80;;;21.50;99.90;;;;;;7284817;19;20230;-78
2023/06/10 03:03:02;;;;;;;11.50;7.50;;;21.40;99.90;;;;;;7283384;19;20196;-78
2023/06/10 03:05:32;;;;;;;12.83;7.47;;;21.40;99.90;;;;;;7285185;19;20196;-78
2023/06/10 03:08:00;;;;;;;13.27;7.87;;;21.30;99.90;;;;;;7283157;19;20206;-79
2023/06/10 03:10:27;;;;;;;11.73;7.80;;;21.20;99.90;;;;;;7284396;19;20204;-78
2023/06/10 03:12:53;;;;;;;13.37;8.30;;;21.10;99.90;;;;;;7282347;19;20559;-78
2023/06/10 03:15:20;;;;;;;12.93;7.80;;;21.10;99.90;;;;;;7301962;19;20179;-77
2023/06/10 03:17:47;;;;;;;12.43;7.70;;;21.10;99.90;;;;;;7304915;19;20671;-78
2023/06/10 03:20:15;;;;;;;11.97;8.03;;;21.20;99.90;;;;;;7283057;19;20188;-78
2023/06/10 03:22:45;;;;;;;12.97;8.17;;;21.20;99.90;;;;;;7283057;19;20189;-78
2023/06/10 03:25:13;;;;;;;13.37;7.93;;;21.20;99.90;;;;;;7284055;19;20273;-78
2023/06/10 03:27:42;;;;;;;13.00;8.03;;;21.10;99.90;;;;;;7283152;19;20190;-79
2023/06/10 03:30:08;;;;;;;12.17;7.67;;;21.00;99.90;;;;;;7282118;19;20207;-78
2023/06/10 03:32:35;;;;;;;10.77;7.97;;;21.00;99.90;;;;;;7281982;19;20662;-78
2023/06/10 03:35:02;;;;;;;11.13;7.70;;;20.90;99.90;;;;;;7282297;19;20206;-78
2023/06/10 03:37:29;;;;;;;12.97;7.73;;;20.90;99.90;;;;;;7282008;19;20260;-78
2023/06/10 03:39:55;;;;;;;12.33;8.30;;;21.00;99.90;;;;;;7282612;19;20736;-79
2023/06/10 03:42:21;;;;;;;11.70;7.90;;;20.90;99.90;;;;;;7282352;19;20663;-78
2023/06/10 03:44:47;;;;;;;14.27;8.20;;;21.00;99.90;;;;;;7303532;19;20655;-79
2023/06/10 03:47:12;;;;;;;11.60;7.97;;;21.00;99.90;;;;;;7282337;19;20207;-78
2023/06/10 03:49:40;;;;;;;12.67;8.07;;;21.00;99.90;;;;;;7281252;19;20260;-78
2023/06/10 03:52:07;;;;;;;11.63;8.23;;;20.90;99.90;;;;;;7279344;19;20204;-79
2023/06/10 03:54:34;;;;;;;12.87;7.90;;;20.90;99.90;;;;;;7281225;19;20265;-78
2023/06/10 03:57:01;;;;;;;11.93;8.03;;;20.90;99.90;;;;;;7289318;19;20184;-79
2023/06/10 03:59:26;;;;;;;12.30;8.13;;;21.00;99.90;;;;;;7288435;19;20589;-79
2023/06/10 04:01:52;;;;;;;12.10;7.77;;;21.00;99.90;;;;;;7290658;19;20198;-78
2023/06/10 04:04:18;;;;;;;13.27;8.27;;;21.00;99.90;;;;;;7310836;19;20574;-78
2023/06/10 04:06:44;;;;;;;11.87;7.57;;;21.00;99.90;;;;;;7289311;19;20189;-78
2023/06/10 04:09:11;;;;;;;12.87;8.47;;;21.00;99.90;;;;;;7289673;19;20174;-79
2023/06/10 04:11:37;;;;;;;12.57;7.87;;;21.10;99.90;;;;;;7289206;19;20286;-79
2023/06/10 04:14:03;;;;;;;12.13;8.23;;;21.10;99.90;;;;;;7289822;19;20192;-79
2023/06/10 04:16:29;;;;;;;12.90;8.30;;;21.10;99.90;;;;;;7289030;19;20524;-78
2023/06/10 04:18:55;;;;;;;14.27;8.13;;;21.20;99.90;;;;;;7288554;19;20188;-78
2023/06/10 04:21:22;;;;;;;12.30;7.87;;;21.30;99.90;;;;;;7287876;19;20189;-78
2023/06/10 04:23:48;;;;;;;12.70;8.13;;;21.30;99.90;;;;;;7308824;19;20625;-79
2023/06/10 04:26:15;;;;;;;12.10;7.83;;;21.30;99.90;;;;;;7285329;19;20209;-79
2023/06/10 04:28:46;;;;;;;12.43;8.20;;;21.50;99.90;;;;;;7288807;19;20657;-78
2023/06/10 04:31:13;;;;;;;11.57;7.97;;;21.70;99.90;;;;;;7287103;19;20192;-78
2023/06/10 04:33:40;;;;;;;19.23;8.30;;;22.10;99.90;;;;;;7287033;19;20243;-79
2023/06/10 04:36:06;;;;;;;11.80;8.03;;;22.70;99.90;;;;;;7289016;19;20229;-79
2023/06/10 04:38:33;;;;;;;12.13;8.60;;;23.50;99.90;;;;;;7287583;19;20180;-79
2023/06/10 04:40:59;;;;;;;13.53;7.83;;;23.80;99.90;;;;;;7288690;19;20229;-79
2023/06/10 04:43:28;;;;;;;14.63;7.75;;;24.40;99.90;;;;;;7287559;19;20185;-78
2023/06/10 04:45:55;;;;;;;13.75;7.60;;;24.80;99.90;;;;;;7287153;19;20211;-78
2023/06/10 04:48:23;;;;;;;13.38;8.00;;;25.00;99.90;;;;;;7291003;19;20193;-77
2023/06/10 04:50:50;;;;;;;13.10;7.88;;;25.80;99.90;;;;;;7308146;19;20696;-77
2023/06/10 04:53:16;;;;;;;13.45;7.60;;;26.30;99.90;;;;;;7303623;19;20656;-78
2023/06/10 04:55:46;;;;;;;12.77;7.35;;;26.70;99.90;;;;;;7288746;19;20185;-78
2023/06/10 04:58:12;;;;;;;12.98;8.07;;;26.90;99.90;;;;;;7287327;19;20189;-78
2023/06/10 05:00:38;;;;;;;11.98;7.55;;;27.50;99.90;;;;;;7286568;19;20193;-81
2023/06/10 05:03:03;;;;;;;11.52;7.15;;;27.70;99.90;;;;;;7287829;19;20205;-80
2023/06/10 05:05:29;;;;;;;13.88;7.70;;;28.40;99.90;;;;;;7288244;19;20173;-79
2023/06/10 05:07:55;;;;;;;11.80;7.78;;;28.90;99.90;;;;;;7286333;19;20192;-78
2023/06/10 05:10:21;;;;;;;13.20;7.05;;;29.30;99.90;;;;;;7290674;19;20248;-79
2023/06/10 05:12:46;;;;;;;11.70;7.45;;;29.70;99.90;;;;;;7309641;19;20648;-78
2023/06/10 05:15:12;;;;;;;10.77;7.35;;;30.00;99.90;;;;;;7286551;19;20217;-78
2023/06/10 05:17:38;;;;;;;11.50;7.30;;;30.10;99.40;;;;;;7287290;19;20352;-78
2023/06/10 05:20:04;;;;;;;10.57;7.30;;;30.00;98.50;;;;;;7286447;19;20193;-78
2023/06/10 05:22:30;;;;;;;11.38;7.28;;;30.50;98.00;;;;;;7284891;19;20189;-77
2023/06/10 05:24:56;;;;;;;11.18;7.22;;;30.10;97.40;;;;;;7285657;19;20181;-77
2023/06/10 05:27:22;;;;;;;11.35;6.95;;;30.40;97.10;;;;;;7286334;19;20218;-77
2023/06/10 05:29:48;;;;;;;12.13;7.38;;;30.90;96.00;;;;;;7309348;19;20180;-79
2023/06/10 05:32:14;;;;;;;12.02;7.80;;;30.90;95.30;;;;;;7286115;19;20285;-78
2023/06/10 05:34:39;;;;;;;10.23;7.20;;;31.20;94.70;;;;;;7287701;19;20201;-79
2023/06/10 05:37:05;;;;;;;11.48;6.90;;;31.90;93.10;;;;;;7284610;19;20196;-77
2023/06/10 05:39:31;;;;;;;11.80;7.43;;;32.30;92.40;;;;;;7286398;19;20196;-79
2023/06/10 05:41:59;;;;;;;10.45;6.95;;;32.50;91.50;;;;;;7285231;19;20193;-78
2023/06/10 05:44:25;;;;;;;12.40;7.40;;;32.30;90.00;;;;;;7288169;19;20260;-78
2023/06/10 05:46:51;;;;;;;11.20;8.07;;;31.30;91.00;;;;;;7289824;19;20653;-77
2023/06/10 05:49:16;;;;;;;11.05;7.45;;;30.90;92.00;;;;;;7308395;19;20185;-77
2023/06/10 05:51:42;;;;;;;11.00;7.40;;;30.70;91.90;;;;;;7286121;19;20189;-79
2023/06/10 05:54:08;;;;;;;10.75;7.15;;;30.80;92.10;;;;;;7286126;19;20291;-79
2023/06/10 05:56:34;;;;;;;13.93;7.40;;;30.70;92.00;;;;;;7285415;19;20202;-79
2023/06/10 05:58:59;;;;;;;13.02;7.40;;;31.30;91.90;;;;;;7285730;19;20185;-80
2023/06/10 06:01:25;;;;;;;10.23;7.07;;;32.10;91.00;;;;;;7284592;19;20193;-80
2023/06/10 06:03:51;;;;;;;11.43;7.10;;;31.90;90.00;;;;;;7292846;19;20268;-77
2023/06/10 06:06:17;;;;;;;12.57;7.40;;;32.10;90.00;;;;;;7308223;19;20196;-79
2023/06/10 06:08:42;;;;;;;11.93;7.60;;;32.40;90.10;;;;;;7286759;19;20551;-80
2023/06/10 06:11:08;;;;;;;11.55;7.13;;;32.40;88.70;;;;;;7285305;19;20212;-79
2023/06/10 06:13:34;;;;;;;12.50;7.65;;;31.80;88.20;;;;;;7285496;19;20197;-78
2023/06/10 06:15:59;;;;;;;12.70;7.65;;;32.00;87.60;;;;;;7284687;19;20193;-80
2023/06/10 06:18:25;;;;;;;12.40;7.10;;;32.00;88.20;;;;;;7285266;19;20634;-79
2023/06/10 06:20:51;;;;;;;13.43;7.88;;;31.80;86.80;;;;;;7290230;19;20181;-78
2023/06/10 06:23:16;;;;;;;13.07;7.57;;;32.40;86.90;;;;;;7307148;19;20558;-79
2023/06/10 06:25:42;;;;;;;10.75;6.90;;;32.70;86.20;;;;;;7283460;19;20180;-79
2023/06/10 06:28:09;;;;;;;10.88;6.85;;;32.90;84.90;;;;;;7284238;19;20674;-79
2023/06/10 06:30:35;;;;;;;12.95;6.90;;;33.10;84.20;;;;;;7286117;19;20185;-79
2023/06/10 06:33:01;;;;;;;10.32;6.93;;;33.60;82.60;;;;;;7285172;19;20300;-79
2023/06/10 06:35:27;;;;;;;13.20;7.35;;;33.40;82.30;;;;;;7285823;19;20205;-78
2023/06/10 06:37:53;;;;;;;9.05;6.38;;;33.50;82.00;;;;;;7285073;19;20184;-79
2023/06/10 06:40:24;;;;;;;12.93;6.80;;;33.90;81.10;;;;;;7284495;19;20256;-79
2023/06/10 06:42:50;;;;;;;9.93;6.85;;;33.90;81.20;;;;;;7297698;19;20657;-78
2023/06/10 06:45:36;;;;;;;12.10;7.05;;;34.20;79.60;;;;;;7284981;19;20209;-79
2023/06/10 06:48:02;;;;;;;11.68;6.82;;;33.80;79.30;;;;;;7285262;19;20653;-78
2023/06/10 06:50:28;;;;;;;11.07;6.88;;;33.70;79.80;;;;;;7285805;19;20213;-78
2023/06/10 06:52:53;;;;;;;11.05;6.75;;;33.30;78.90;;;;;;7286181;19;20215;-78
2023/06/10 06:55:19;;;;;;;12.10;6.97;;;32.80;79.50;;;;;;7306923;19;20712;-79
2023/06/10 06:57:45;;;;;;;11.65;6.68;;;32.60;81.00;;;;;;7283639;19;20248;-79
2023/06/10 07:00:12;;;;;;;11.45;6.47;;;33.30;79.80;;;;;;7283759;19;20194;-80
2023/06/10 07:02:38;;;;;;;10.68;6.90;;;33.70;78.70;;;;;;7284542;19;20195;-79
2023/06/10 07:05:04;;;;;;;9.07;6.38;;;33.80;78.30;;;;;;7283874;19;20188;-79
2023/06/10 07:07:29;;;;;;;9.68;6.43;;;33.90;78.10;;;;;;7283677;19;20272;-81
2023/06/10 07:09:55;;;;;;;9.45;6.03;;;33.50;77.90;;;;;;7283787;19;20200;-80
2023/06/10 07:12:23;;;;;;;11.40;6.38;;;33.80;77.70;;;;;;7288964;19;20209;-79
2023/06/10 07:14:50;;;;;;;8.50;6.03;;;34.30;77.50;;;;;;7306348;19;20197;-79
2023/06/10 07:17:17;;;;;;;11.02;6.70;;;35.10;75.10;;;;;;7284898;19;20203;-81
2023/06/10 07:19:44;;;;;;;12.15;7.15;;;35.30;74.50;;;;;;7283010;19;20193;-79
2023/06/10 07:22:19;;;;;;;10.93;7.00;;;35.20;74.50;;;;;;7283689;19;20197;-80
2023/06/10 07:24:45;;;;;;;10.38;6.28;;;35.30;71.60;;;;;;7282126;19;20215;-79
2023/06/10 07:27:11;;;;;;;9.68;6.05;;;34.90;73.60;;;;;;7281262;19;20193;-78
2023/06/10 07:29:37;;;;;;;9.27;6.18;;;35.80;74.80;;;;;;7283825;19;20199;-79
2023/06/10 07:32:04;;;;;;;11.27;6.53;;;36.90;72.10;;;;;;7296765;19;20197;-78
2023/06/10 07:34:29;;;;;;;7.90;5.90;;;36.40;67.30;;;;;;7296947;19;20193;-78
2023/06/10 07:36:55;;;;;;;11.27;6.60;;;36.40;69.40;;;;;;7297953;19;20200;-79
2023/06/10 07:39:21;;;;;;;11.20;6.25;;;36.70;68.80;;;;;;7303765;19;20653;-79
2023/06/10 07:41:48;;;;;;;10.05;6.20;;;36.50;67.40;;;;;;7320846;19;20192;-79
2023/06/10 07:44:14;;;;;;;9.48;5.72;;;35.40;67.50;;;;;;7298517;19;20185;-79
2023/06/10 07:46:40;;;;;;;10.02;6.32;;;35.20;69.30;;;;;;7297889;19;20206;-79
2023/06/10 07:49:06;;;;;;;9.35;6.10;;;35.60;67.00;;;;;;7297006;19;20204;-80
2023/06/10 07:51:31;;;;;;;9.55;6.00;;;35.10;69.00;;;;;;7297264;19;20298;-81
2023/06/10 07:53:57;;;;;;;12.55;6.95;;;35.10;69.00;;;;;;7296665;19;20656;-81
2023/06/10 07:56:23;;;;;;;9.80;6.10;;;35.20;68.70;;;;;;7296435;19;20207;-81
2023/06/10 07:58:49;;;;;;;12.13;6.10;;;35.60;68.10;;;;;;7315857;19;20201;-81
2023/06/10 08:01:14;;;;;;;11.05;5.90;;;35.80;67.90;;;;;;7297826;19;20248;-81
2023/06/10 08:03:40;;;;;;;9.95;6.03;;;37.70;67.90;;;;;;7298137;19;20521;-82
2023/06/10 08:06:06;;;;;;;9.57;5.78;;;39.30;63.40;;;;;;7296959;19;20200;-82
2023/06/10 08:08:31;;;;;;;10.73;5.82;;;39.60;62.50;;;;;;7296940;19;20192;-81
2023/06/10 08:10:57;;;;;;;10.20;5.70;;;39.60;60.00;;;;;;7296094;19;20244;-81
2023/06/10 08:13:23;;;;;;;9.63;5.45;;;38.20;61.30;;;;;;7298241;19;20252;-81
2023/06/10 08:15:50;;;;;;;11.63;5.97;;;38.20;62.80;;;;;;7319325;19;20230;-82
2023/06/10 08:18:16;;;;;;;9.90;6.03;;;37.80;62.10;;;;;;7297286;19;20217;-82
2023/06/10 08:20:42;;;;;;;11.55;5.53;;;37.80;61.70;;;;;;7296115;19;20296;-81
2023/06/10 08:23:08;;;;;;;9.82;6.00;;;38.60;61.30;;;;;;7296635;19;20599;-82
2023/06/10 08:25:33;;;;;;;7.63;5.50;;;37.80;58.80;;;;;;7295956;19;20188;-81
2023/06/10 08:27:59;;;;;;;10.25;5.85;;;37.20;60.20;;;;;;7296076;19;20200;-81
2023/06/10 08:30:25;;;;;;;10.80;5.85;;;36.80;60.70;;;;;;7296246;19;20192;-81
2023/06/10 08:32:51;;;;;;;8.07;5.90;;;37.00;62.20;;;;;;7310402;19;20235;-80
2023/06/10 08:35:17;;;;;;;10.25;6.22;;;37.30;60.50;;;;;;7319763;19;20193;-81
2023/06/10 08:37:43;;;;;;;10.30;5.63;;;37.70;61.40;;;;;;7297065;19;20191;-79
2023/06/10 08:40:09;;;;;;;8.65;5.97;;;37.60;61.40;;;;;;7295865;19;20193;-80
2023/06/10 08:42:50;;;;;;;8.65;5.95;;;37.40;59.70;;;;;;7291489;19;20185;-81
2023/06/10 08:45:20;;;;;;;8.95;5.93;;;37.30;61.40;;;;;;7289428;19;20197;-82
2023/06/10 08:47:53;;;;;;;9.15;6.05;;;38.50;59.90;;;;;;7293419;19;20206;-81
2023/06/10 08:50:19;;;;;;;8.25;5.78;;;38.10;58.90;;;;;;7288857;19;20197;-82
2023/06/10 08:52:50;;;;;;;11.90;6.93;;;38.00;60.30;;;;;;7288346;19;20197;-82
2023/06/10 08:55:25;;;;;;;10.27;5.95;;;39.00;58.70;;;;;;7288517;19;20630;-82
2023/06/10 08:57:52;;;;;;;8.65;6.18;;;39.60;57.90;;;;;;7271769;19;20192;-82
2023/06/10 09:00:18;;;;;;;11.75;7.95;;;39.20;57.90;;;;;;7310317;19;20861;-82
2023/06/10 09:02:44;;;;;;;9.05;6.38;;;39.30;57.60;;;;;;7288944;19;20185;-82
2023/06/10 09:05:10;;;;;;;10.00;5.90;;;38.60;57.80;;;;;;7288240;19;20265;-82
2023/06/10 09:07:37;;;;;;;13.02;6.25;;;38.40;58.10;;;;;;7288159;19;20181;-82
2023/06/10 09:10:06;;;;;;;12.60;8.32;;;38.40;58.10;;;;;;7288485;19;20260;-82
2023/06/10 09:12:35;;;;;;;8.85;6.63;;;38.20;58.30;;;;;;7289198;19;20197;-82
2023/06/10 09:15:01;;;;;;;8.63;6.20;;;38.20;57.90;;;;;;7288181;19;20208;-82
2023/06/10 09:17:28;;;;;;;9.70;6.28;;;39.80;58.10;;;;;;7287703;19;20193;-81
2023/06/10 09:19:55;;;;;;;10.93;6.28;;;39.70;56.00;;;;;;7288802;19;20189;-82
2023/06/10 09:22:22;;;;;;;11.07;7.40;;;38.10;57.60;;;;;;7299361;19;20279;-81
2023/06/10 09:24:48;;;;;;;8.95;6.35;;;37.60;58.90;;;;;;7311316;19;20198;-83
2023/06/10 09:27:14;;;;;;;11.75;9.27;;;38.10;58.20;;;;;;7287405;19;20210;-83
2023/06/10 09:29:57;;;;;;;11.38;7.07;;;38.40;57.90;;;;;;7288622;19;21673;-82
2023/06/10 09:32:24;;;;;;;11.27;7.53;;;38.90;57.60;;;;;;7266049;19;20276;-82
2023/06/10 09:34:50;;;;;;;18.38;16.02;;;39.60;55.70;;;;;;7308734;19;20193;-82
2023/06/10 09:37:25;;;;;;;12.82;8.75;;;38.80;55.80;;;;;;7288088;19;20252;-82
2023/06/10 09:40:08;;;;;;;21.98;17.63;;;38.90;55.90;;;;;;7271613;19;20196;-82
2023/06/10 09:42:35;;;;;;;11.25;6.63;;;39.10;56.30;;;;;;7287441;19;20197;-82
2023/06/10 09:45:07;;;;;;;8.82;6.15;;;39.80;56.50;;;;;;7285401;19;20200;-83
2023/06/10 09:47:34;;;;;;;17.15;13.63;;;40.80;53.80;;;;;;7287008;19;20210;-82
2023/06/10 09:50:01;;;;;;;23.45;17.40;;;39.80;54.20;;;;;;7284140;19;20188;-81
2023/06/10 09:52:29;;;;;;;7.63;5.93;;;39.00;55.90;;;;;;7284109;19;20200;-82
2023/06/10 09:55:01;;;;;;;9.23;5.82;;;38.90;55.40;;;;;;7284653;19;20193;-82
2023/06/10 09:57:32;;;;;;;8.38;5.45;;;40.00;56.20;;;;;;7285957;19;20248;-82
2023/06/10 09:59:58;;;;;;;9.85;5.68;;;39.60;53.80;;;;;;7305233;19;20193;-81
2023/06/10 10:02:24;;;;;;;9.43;5.72;;;38.50;53.90;;;;;;7285879;19;20725;-81
2023/06/10 10:04:50;;;;;;;10.38;5.38;;;37.50;53.90;;;;;;7307632;19;20223;-81
2023/06/10 10:07:16;;;;;;;8.75;5.47;;;37.10;55.50;;;;;;7286361;19;20197;-82
2023/06/10 10:09:42;;;;;;;9.15;5.70;;;37.00;55.50;;;;;;7284542;19;20214;-82
2023/06/10 10:12:11;;;;;;;8.07;5.38;;;36.90;54.50;;;;;;7284445;19;20201;-82
2023/06/10 10:14:38;;;;;;;10.82;5.68;;;37.40;54.60;;;;;;7287105;19;20189;-82
2023/06/10 10:17:11;;;;;;;9.20;5.38;;;38.00;56.00;;;;;;7285798;19;20201;-81
2023/06/10 10:20:00;;;;;;;9.95;5.50;;;39.50;54.90;;;;;;7285174;19;20287;-82
2023/06/10 10:22:29;;;;;;;8.15;4.95;;;40.80;52.90;;;;;;7182029;19;2004424;-81
2023/06/10 10:25:02;;;;;;;8.93;5.25;;;41.90;51.50;;;;;;7286062;19;20660;-82
2023/06/10 10:27:33;;;;;;;11.52;5.25;;;41.90;50.60;;;;;;7286483;19;20739;-82
2023/06/10 10:29:59;;;;;;;9.52;5.10;;;40.30;51.50;;;;;;7285484;19;20193;-82
2023/06/10 10:32:45;;;;;;;8.70;4.97;;;39.20;51.70;;;;;;7285681;19;20188;-81
2023/06/10 10:35:17;;;;;;;8.80;4.90;;;39.00;51.20;;;;;;7285654;19;20677;-82
2023/06/10 10:37:43;;;;;;;8.82;5.35;;;38.30;51.10;;;;;;7286111;19;20185;-82
2023/06/10 10:40:11;;;;;;;8.30;5.50;;;37.80;52.80;;;;;;7286044;19;20538;-82
2023/06/10 10:42:38;;;;;;;7.40;5.30;;;38.80;53.60;;;;;;7285057;19;20199;-82
2023/06/10 10:45:05;;;;;;;7.20;5.00;;;39.20;51.60;;;;;;7284609;19;20573;-82
2023/06/10 10:47:31;;;;;;;9.25;4.65;;;38.90;51.20;;;;;;7284673;19;20193;-82
2023/06/10 10:49:59;;;;;;;7.32;4.80;;;38.80;51.70;;;;;;7287337;19;20189;-83
2023/06/10 10:52:27;;;;;;;9.82;5.18;;;38.50;50.70;;;;;;7285507;19;20192;-82
2023/06/10 10:54:54;;;;;;;7.88;5.07;;;37.90;52.20;;;;;;7288715;19;20189;-82
2023/06/10 10:57:28;;;;;;;9.18;5.32;;;37.60;52.70;;;;;;7307120;19;20244;-81
2023/06/10 10:59:56;;;;;;;8.57;5.13;;;37.00;51.90;;;;;;7261748;19;20197;-81
2023/06/10 11:02:45;;;;;;;9.80;5.15;;;36.20;51.70;;;;;;7288897;19;20185;-82
2023/06/10 11:05:16;;;;;;;7.40;5.05;;;36.00;52.90;;;;;;7281701;19;20205;-82
2023/06/10 11:07:53;;;;;;;7.75;5.28;;;36.30;52.70;;;;;;7285254;19;20192;-82
2023/06/10 11:10:31;;;;;;;8.73;5.28;;;36.80;52.70;;;;;;7285700;19;20297;-82
2023/06/10 11:12:57;;;;;;;8.95;5.22;;;36.00;53.10;;;;;;7182889;19;2004607;-82
2023/06/10 11:15:29;;;;;;;8.93;5.20;;;36.30;52.80;;;;;;7284657;19;20180;-81
2023/06/10 11:18:25;;;;;;;11.02;4.63;;;35.40;52.40;;;;;;7283889;19;20193;-81
2023/06/10 11:21:04;;;;;;;10.20;5.18;;;35.20;52.60;;;;;;7276516;19;20181;-81
2023/06/10 11:23:32;;;;;;;8.75;5.13;;;35.40;53.80;;;;;;7285256;19;20208;-82
2023/06/10 11:26:32;;;;;;;7.70;4.93;;;36.50;54.30;;;;;;7283598;19;20225;-82
2023/06/10 11:28:57;;;;;;;9.73;5.40;;;37.90;52.00;;;;;;7182555;19;2004773;-82
2023/06/10 11:31:25;;;;;;;10.35;5.72;;;38.60;51.60;;;;;;7283511;19;20263;-82
2023/06/10 11:34:00;;;;;;;9.05;5.55;;;38.60;52.60;;;;;;7294236;19;20204;-82
2023/06/10 11:36:26;;;;;;;8.48;5.57;;;37.60;52.70;;;;;;7285788;19;20196;-81
2023/06/10 11:39:04;;;;;;;8.98;5.50;;;36.60;53.40;;;;;;7290525;19;20181;-81
2023/06/10 11:41:31;;;;;;;8.30;5.30;;;36.30;53.00;;;;;;7288054;19;20334;-82
2023/06/10 11:44:27;;;;;;;8.07;5.00;;;36.70;53.30;;;;;;7286674;19;20197;-82
2023/06/10 11:46:53;;;;;;;10.05;5.55;;;37.50;51.10;;;;;;7261283;19;20304;-81
2023/06/10 11:49:20;;;;;;;10.98;5.45;;;37.50;53.20;;;;;;7304432;19;20284;-82
2023/06/10 11:51:49;;;;;;;9.75;5.95;;;37.40;52.20;;;;;;7284197;19;20244;-81
2023/06/10 11:54:16;;;;;;;9.00;5.72;;;37.30;52.20;;;;;;7283910;19;20854;-81
2023/06/10 11:56:42;;;;;;;7.13;5.57;;;37.30;52.80;;;;;;7283254;19;20189;-81
2023/06/10 11:59:07;;;;;;;8.23;5.63;;;37.20;52.70;;;;;;7283070;19;20193;-81
2023/06/10 12:01:36;;;;;;;9.70;5.63;;;37.00;53.80;;;;;;7283143;19;20537;-82
2023/06/10 12:04:11;;;;;;;10.65;5.93;;;36.60;52.50;;;;;;7283542;19;20185;-81
2023/06/10 12:06:50;;;;;;;9.82;5.38;;;35.50;52.60;;;;;;7282107;19;20189;-81
2023/06/10 12:09:21;;;;;;;9.27;5.68;;;34.80;53.10;;;;;;7285192;19;20189;-82
2023/06/10 12:11:50;;;;;;;8.82;5.65;;;34.10;54.60;;;;;;7283361;19;20185;-82
2023/06/10 12:14:36;;;;;;;10.98;5.45;;;33.80;54.60;;;;;;7284294;19;20189;-81
2023/06/10 12:17:02;;;;;;;9.50;5.68;;;33.50;55.50;;;;;;7184288;19;2006340;-81
2023/06/10 12:19:31;;;;;;;9.77;6.18;;;33.20;56.20;;;;;;7288758;19;20213;-81
2023/06/10 12:22:00;;;;;;;9.48;6.45;;;33.00;56.00;;;;;;7289468;19;20620;-81
2023/06/10 12:24:26;;;;;;;11.73;6.07;;;32.90;57.30;;;;;;7290904;19;20903;-81
2023/06/10 12:26:55;;;;;;;7.93;5.65;;;32.80;56.70;;;;;;7289739;19;20293;-81
2023/06/10 12:29:29;;;;;;;10.25;6.40;;;32.70;56.80;;;;;;7296222;19;20181;-81
2023/06/10 12:32:01;;;;;;;9.65;6.03;;;32.50;57.20;;;;;;7289457;19;20185;-81
2023/06/10 12:34:37;;;;;;;10.38;6.15;;;32.40;58.60;;;;;;7290615;19;20185;-82
2023/06/10 12:37:05;;;;;;;9.43;6.70;;;32.20;58.90;;;;;;7289316;19;20704;-81
2023/06/10 12:39:32;;;;;;;11.48;5.88;;;32.20;58.40;;;;;;7289461;19;20185;-82
2023/06/10 12:41:59;;;;;;;9.75;5.93;;;32.40;59.70;;;;;;7287877;19;20184;-81